createdAt,value
2019-02-19T00:00:48.611Z,1.00
2019-02-19T00:03:38.248Z,1.00
2019-02-19T00:06:28.415Z,1.00
2019-02-19T00:09:18.601Z,1.00
2019-02-19T00:12:08.773Z,1.00
2019-02-19T00:14:58.372Z,1.00
2019-02-19T00:17:48.538Z,1.00
2019-02-19T00:20:39.495Z,1.00
2019-02-19T00:23:29.342Z,1.00
2019-02-19T00:26:19.853Z,1.00
2019-02-19T00:29:09.714Z,1.00
2019-02-19T00:31:59.734Z,1.00
2019-02-19T00:34:49.605Z,1.00
2019-02-19T00:37:39.071Z,1.00
2019-02-19T00:40:29.947Z,1.00
2019-02-19T00:43:27.305Z,1.00
2019-02-19T00:46:17.188Z,1.00
2019-02-19T00:49:06.804Z,1.00
2019-02-19T00:51:56.465Z,1.00
2019-02-19T00:54:46.523Z,1.00
2019-02-19T00:57:36.636Z,1.00
2019-02-19T01:00:26.554Z,1.00
2019-02-19T01:03:16.517Z,1.00
2019-02-19T01:06:06.815Z,1.00
2019-02-19T01:08:56.755Z,1.00
2019-02-19T01:11:46.464Z,1.00
2019-02-19T01:14:36.314Z,1.00
2019-02-19T01:17:26.336Z,1.00
2019-02-19T01:20:16.882Z,1.00
2019-02-19T01:23:07.142Z,1.00
2019-02-19T01:25:56.784Z,1.00
2019-02-19T01:28:46.539Z,1.00
2019-02-19T01:31:36.834Z,1.00
2019-02-19T01:34:26.760Z,1.00
2019-02-19T01:37:16.482Z,1.00
2019-02-19T01:40:07.083Z,1.00
2019-02-19T01:42:57.094Z,1.00
2019-02-19T01:45:47.990Z,1.00
2019-02-19T01:48:37.654Z,1.00
2019-02-19T01:51:27.676Z,1.00
2019-02-19T01:54:17.464Z,1.00
2019-02-19T01:57:07.725Z,1.00
2019-02-19T01:59:57.234Z,1.00
2019-02-19T02:02:47.194Z,1.00
2019-02-19T02:05:36.972Z,1.00
2019-02-19T02:08:26.844Z,1.00
2019-02-19T02:11:16.985Z,1.00
2019-02-19T02:14:06.915Z,1.00
2019-02-19T02:16:56.622Z,1.00
2019-02-19T02:19:46.563Z,1.00
2019-02-19T02:22:36.482Z,1.00
2019-02-19T02:25:26.452Z,1.00
2019-02-19T02:28:16.165Z,1.00
2019-02-19T02:31:06.404Z,1.00
2019-02-19T02:33:56.314Z,1.00
2019-02-19T02:36:46.461Z,1.00
2019-02-19T02:39:36.188Z,1.00
2019-02-19T02:42:26.257Z,1.00
2019-02-19T02:45:16.052Z,1.00
2019-02-19T02:48:06.222Z,1.00
2019-02-19T02:50:56.371Z,1.00
2019-02-19T02:53:46.291Z,1.00
2019-02-19T02:56:36.381Z,1.00
2019-02-19T02:59:26.062Z,1.00
2019-02-19T03:02:15.712Z,1.00
2019-02-19T03:05:05.941Z,1.00
2019-02-19T03:07:58.345Z,1.00
2019-02-19T03:10:48.584Z,1.00
2019-02-19T03:13:38.536Z,1.00
2019-02-19T03:16:28.536Z,1.00
2019-02-19T03:19:18.186Z,1.00
2019-02-19T03:22:08.514Z,1.00
2019-02-19T03:24:57.999Z,1.00
2019-02-19T03:27:47.932Z,1.00
2019-02-19T03:30:38.153Z,1.00
2019-02-19T03:33:28.524Z,1.00
2019-02-19T03:36:18.397Z,1.00
2019-02-19T03:39:08.492Z,1.00
2019-02-19T03:41:58.628Z,1.00
2019-02-19T03:44:48.464Z,1.00
2019-02-19T03:47:38.361Z,1.00
2019-02-19T03:50:28.235Z,1.00
2019-02-19T03:53:18.136Z,1.00
2019-02-19T03:56:08.604Z,1.00
2019-02-19T03:58:58.530Z,1.00
2019-02-19T04:01:48.372Z,1.00
2019-02-19T04:04:38.294Z,1.00
2019-02-19T04:07:28.123Z,1.00
2019-02-19T04:10:18.205Z,1.00
2019-02-19T04:13:07.873Z,1.00
2019-02-19T04:15:57.725Z,1.00
2019-02-19T04:18:47.648Z,1.00
2019-02-19T04:21:37.976Z,28.60
2019-02-19T04:24:27.712Z,97.80
2019-02-19T04:27:17.500Z,99.90
2019-02-19T04:30:07.513Z,99.90
2019-02-19T04:32:57.206Z,99.90
2019-02-19T04:35:46.873Z,99.90
2019-02-19T04:38:36.831Z,99.90
2019-02-19T04:41:26.739Z,1.00
2019-02-19T04:44:16.776Z,1.00
2019-02-19T04:47:06.505Z,1.00
2019-02-19T04:49:56.453Z,1.00
2019-02-19T04:52:46.576Z,1.00
2019-02-19T04:55:36.355Z,42.10
2019-02-19T04:58:26.454Z,99.90
2019-02-19T05:01:16.118Z,99.90
2019-02-19T05:04:05.817Z,99.90
2019-02-19T05:06:55.497Z,1.00
2019-02-19T05:09:45.195Z,19.50
2019-02-19T05:12:35.093Z,99.90
2019-02-19T05:15:24.894Z,99.90
2019-02-19T05:18:14.985Z,99.90
2019-02-19T05:21:04.932Z,1.00
2019-02-19T05:23:54.832Z,1.00
2019-02-19T05:26:44.625Z,1.00
2019-02-19T05:29:34.326Z,1.00
2019-02-19T05:32:24.308Z,99.90
2019-02-19T05:35:15.115Z,99.90
2019-02-19T05:38:05.202Z,99.90
2019-02-19T05:40:55.080Z,1.00
2019-02-19T05:43:44.779Z,1.00
2019-02-19T05:46:34.956Z,99.90
2019-02-19T05:49:24.994Z,99.90
2019-02-19T05:52:15.146Z,99.90
2019-02-19T05:55:05.336Z,99.90
2019-02-19T05:57:55.392Z,1.00
2019-02-19T06:00:45.256Z,1.00
2019-02-19T06:03:35.025Z,1.00
2019-02-19T06:06:25.112Z,1.00
2019-02-19T06:09:14.926Z,1.00
2019-02-19T06:12:04.475Z,99.90
2019-02-19T06:14:54.343Z,99.90
2019-02-19T06:17:43.917Z,99.90
2019-02-19T06:20:33.540Z,1.00
2019-02-19T06:23:23.303Z,1.00
2019-02-19T06:26:14.472Z,99.90
2019-02-19T06:29:04.634Z,1.00
2019-02-19T06:31:54.468Z,1.00
2019-02-19T06:34:44.567Z,99.90
2019-02-19T06:37:34.745Z,50.10
2019-02-19T06:40:33.456Z,1.00
2019-02-19T06:43:23.412Z,1.00
2019-02-19T06:46:13.311Z,99.90
2019-02-19T06:49:03.094Z,99.90
2019-02-19T06:51:53.175Z,99.90
2019-02-19T06:54:43.156Z,99.90
2019-02-19T06:57:33.151Z,99.90
2019-02-19T07:00:26.972Z,98.10
2019-02-19T07:03:21.472Z,5.90
2019-02-19T07:06:11.573Z,1.00
2019-02-19T07:09:01.465Z,1.00
2019-02-19T07:11:52.856Z,1.00
2019-02-19T07:14:42.665Z,1.00
2019-02-19T07:17:32.485Z,1.00
2019-02-19T07:20:22.303Z,1.00
2019-02-19T07:23:12.012Z,99.90
2019-02-19T07:26:03.224Z,99.90
2019-02-19T07:28:53.185Z,99.90
2019-02-19T07:31:43.373Z,99.90
2019-02-19T07:34:33.166Z,99.90
2019-02-19T07:37:23.027Z,99.90
2019-02-19T07:40:13.153Z,99.90
2019-02-19T07:43:03.254Z,99.90
2019-02-19T07:45:53.165Z,99.90
2019-02-19T07:48:42.505Z,99.90
2019-02-19T07:51:32.676Z,99.90
2019-02-19T07:54:22.945Z,99.90
2019-02-19T07:57:12.735Z,60.30
2019-02-19T08:00:02.542Z,6.10
2019-02-19T08:02:53.622Z,14.10
2019-02-19T08:05:43.756Z,1.00
2019-02-19T08:08:33.693Z,34.30
2019-02-19T08:11:23.667Z,1.00
2019-02-19T08:14:13.485Z,1.00
2019-02-19T08:17:03.740Z,1.00
2019-02-19T08:19:53.965Z,1.00
2019-02-19T08:22:44.434Z,1.00
2019-02-19T08:25:34.135Z,1.00
2019-02-19T08:28:24.127Z,1.00
2019-02-19T08:31:14.245Z,1.00
2019-02-19T08:34:04.172Z,1.00
2019-02-19T08:36:53.944Z,1.00
2019-02-19T08:39:43.769Z,1.00
2019-02-19T08:42:33.992Z,1.00
2019-02-19T08:45:23.639Z,1.00
2019-02-19T08:48:13.387Z,1.00
2019-02-19T08:51:03.812Z,1.00
2019-02-19T08:53:53.754Z,1.00
2019-02-19T08:56:43.646Z,1.00
2019-02-19T08:59:33.802Z,1.00
2019-02-19T09:02:24.133Z,1.00
2019-02-19T09:05:14.185Z,1.00
2019-02-19T09:08:04.105Z,1.00
2019-02-19T09:10:53.852Z,1.00
2019-02-19T09:13:43.713Z,1.00
2019-02-19T09:16:33.365Z,1.00
2019-02-19T09:19:23.414Z,1.00
2019-02-19T09:22:13.575Z,1.00
2019-02-19T09:25:03.710Z,1.00
2019-02-19T09:27:53.861Z,1.00
2019-02-19T09:30:43.666Z,1.00
2019-02-19T09:33:33.335Z,1.00
2019-02-19T09:36:23.392Z,1.00
2019-02-19T09:39:13.052Z,1.00
2019-02-19T09:42:03.239Z,1.00
2019-02-19T09:44:53.105Z,1.00
2019-02-19T09:47:42.512Z,1.00
2019-02-19T09:50:33.327Z,1.00
2019-02-19T09:53:23.385Z,1.00
2019-02-19T09:56:12.597Z,1.00
2019-02-19T09:59:02.583Z,1.00
2019-02-19T10:01:52.606Z,1.00
2019-02-19T10:04:42.888Z,1.00
2019-02-19T10:07:33.354Z,1.00
2019-02-19T10:10:23.277Z,1.00
2019-02-19T10:13:13.236Z,1.00
2019-02-19T10:16:03.497Z,1.00
2019-02-19T10:18:53.453Z,1.00
2019-02-19T10:21:43.491Z,1.00
2019-02-19T10:24:33.655Z,1.00
2019-02-19T10:27:23.893Z,1.00
2019-02-19T10:30:15.197Z,1.00
2019-02-19T10:33:04.785Z,1.00
2019-02-19T10:35:57.572Z,1.00
2019-02-19T10:38:47.853Z,1.00
2019-02-19T10:41:38.886Z,1.00
2019-02-19T10:44:28.945Z,1.00
2019-02-19T10:47:18.796Z,1.00
2019-02-19T10:50:09.302Z,1.00
2019-02-19T10:52:59.197Z,1.00
2019-02-19T10:55:48.763Z,1.00
2019-02-19T10:58:38.813Z,1.00
2019-02-19T11:01:28.823Z,1.00
2019-02-19T11:04:18.776Z,1.00
2019-02-19T11:07:08.836Z,1.00
2019-02-19T11:09:58.908Z,1.00
2019-02-19T11:12:48.928Z,1.00
2019-02-19T11:15:39.023Z,1.00
2019-02-19T11:18:29.295Z,99.90
2019-02-19T11:21:20.018Z,99.90
2019-02-19T11:24:09.965Z,99.90
2019-02-19T11:27:00.220Z,99.90
2019-02-19T11:29:49.982Z,99.90
2019-02-19T11:32:39.713Z,99.90
2019-02-19T11:35:29.807Z,99.90
2019-02-19T11:38:19.383Z,99.90
2019-02-19T11:41:09.400Z,1.00
2019-02-19T11:43:59.050Z,1.00
2019-02-19T11:46:49.244Z,1.00
2019-02-19T11:49:39.046Z,1.00
2019-02-19T11:52:29.147Z,1.00
2019-02-19T11:55:19.073Z,1.00
2019-02-19T11:58:08.783Z,1.00
2019-02-19T12:00:58.441Z,1.00
2019-02-19T12:03:48.224Z,1.00
2019-02-19T12:06:38.014Z,34.40
2019-02-19T12:09:27.884Z,98.40
2019-02-19T12:12:17.680Z,1.00
2019-02-19T12:15:08.082Z,1.00
2019-02-19T12:17:58.266Z,1.00
2019-02-19T12:20:48.162Z,1.00
2019-02-19T12:23:38.085Z,1.00
2019-02-19T12:26:27.944Z,1.00
2019-02-19T12:29:17.935Z,99.90
2019-02-19T12:32:07.935Z,99.90
2019-02-19T12:34:57.954Z,1.00
2019-02-19T12:37:47.956Z,1.00
2019-02-19T12:40:37.962Z,1.00
2019-02-19T12:43:27.715Z,1.00
2019-02-19T12:46:17.702Z,1.00
2019-02-19T12:49:07.486Z,1.00
2019-02-19T12:51:57.217Z,1.00
2019-02-19T12:54:46.875Z,1.00
2019-02-19T12:57:36.946Z,1.00
2019-02-19T13:00:26.846Z,1.00
2019-02-19T13:03:16.639Z,99.90
2019-02-19T13:06:06.784Z,99.90
2019-02-19T13:08:56.936Z,99.90
2019-02-19T13:11:46.693Z,99.90
2019-02-19T13:14:39.085Z,99.90
2019-02-19T13:17:29.786Z,99.90
2019-02-19T13:20:19.847Z,77.50
2019-02-19T13:23:09.301Z,1.00
2019-02-19T13:25:59.326Z,1.00
2019-02-19T13:28:49.435Z,1.00
2019-02-19T13:31:39.383Z,1.00
2019-02-19T13:34:29.686Z,1.00
2019-02-19T13:37:19.950Z,1.00
2019-02-19T13:40:10.955Z,1.00
2019-02-19T13:43:00.677Z,1.00
2019-02-19T13:45:50.462Z,1.00
2019-02-19T13:48:40.731Z,1.00
2019-02-19T13:51:30.444Z,1.00
2019-02-19T13:54:31.743Z,1.00
2019-02-19T13:57:21.871Z,1.00
2019-02-19T14:00:16.733Z,1.00
2019-02-19T14:03:06.850Z,1.00
2019-02-19T14:05:56.405Z,1.00
2019-02-19T14:08:46.072Z,1.00
2019-02-19T14:11:35.865Z,1.00
2019-02-19T14:14:36.964Z,1.00
2019-02-19T14:17:26.885Z,1.00
2019-02-19T14:20:26.900Z,1.00
2019-02-19T14:23:34.494Z,1.00
2019-02-19T14:26:44.041Z,1.00
2019-02-19T14:29:52.454Z,1.00
2019-02-19T14:33:04.784Z,1.00
2019-02-19T14:36:12.255Z,1.00
2019-02-19T14:39:31.321Z,1.00
2019-02-19T14:42:38.818Z,1.00
2019-02-19T14:45:53.787Z,1.00
2019-02-19T14:49:04.324Z,1.00
2019-02-19T14:52:11.849Z,1.00
2019-02-19T14:55:12.275Z,1.00
2019-02-19T14:58:09.755Z,1.00
2019-02-19T15:01:17.335Z,1.00
2019-02-19T15:04:42.433Z,1.00
2019-02-19T15:08:00.485Z,1.00
2019-02-19T15:11:18.498Z,1.00
2019-02-19T15:14:26.940Z,1.00
2019-02-19T15:17:35.154Z,1.00
2019-02-19T15:20:55.550Z,1.00
2019-02-19T15:24:13.389Z,1.00
2019-02-19T15:27:09.892Z,1.00
2019-02-19T15:30:17.422Z,1.00
2019-02-19T15:33:25.119Z,1.00
2019-02-19T15:36:42.958Z,1.00
2019-02-19T15:39:49.225Z,1.00
2019-02-19T15:42:59.593Z,1.00
2019-02-19T15:46:06.874Z,1.00
2019-02-19T15:49:34.440Z,1.00
2019-02-19T15:52:35.281Z,1.00
2019-02-19T15:55:42.879Z,1.00
2019-02-19T15:59:01.021Z,1.00
2019-02-19T16:02:16.812Z,1.00
2019-02-19T16:05:28.502Z,1.00
2019-02-19T16:08:45.832Z,1.00
2019-02-19T16:11:57.830Z,1.00
2019-02-19T16:15:24.678Z,1.00
2019-02-19T16:18:30.852Z,1.00
2019-02-19T16:21:48.084Z,1.00
2019-02-19T16:24:59.758Z,1.00
2019-02-19T16:28:20.152Z,1.00
2019-02-19T16:31:36.252Z,1.00
2019-02-19T16:34:32.582Z,1.00
2019-02-19T16:37:38.237Z,1.00
2019-02-19T16:40:37.913Z,1.00
2019-02-19T16:43:44.723Z,1.00
2019-02-19T16:46:56.329Z,1.00
2019-02-19T16:50:17.531Z,1.00
2019-02-19T16:53:28.715Z,1.00
2019-02-19T16:56:36.104Z,1.00
2019-02-19T16:59:53.703Z,1.00
2019-02-19T17:03:04.792Z,1.00
2019-02-19T17:05:58.497Z,1.00
2019-02-19T17:09:13.765Z,1.00
2019-02-19T17:12:21.468Z,1.00
2019-02-19T17:15:30.349Z,1.00
2019-02-19T17:18:34.994Z,1.00
2019-02-19T17:21:31.763Z,1.00
2019-02-19T17:24:28.404Z,1.00
2019-02-19T17:27:25.966Z,39.90
2019-02-19T17:30:33.564Z,39.60
2019-02-19T17:33:38.172Z,83.50
2019-02-19T17:36:35.140Z,99.90
2019-02-19T17:39:44.384Z,99.90
2019-02-19T17:42:59.343Z,99.90
2019-02-19T17:45:57.536Z,99.90
2019-02-19T17:48:56.805Z,99.90
2019-02-19T17:52:07.198Z,99.90
2019-02-19T17:55:20.620Z,99.90
2019-02-19T17:58:28.937Z,99.90
2019-02-19T18:01:29.035Z,1.00
2019-02-19T18:04:24.780Z,1.00
2019-02-19T18:07:24.317Z,1.00
2019-02-19T18:10:32.699Z,1.00
2019-02-19T18:13:57.400Z,1.00
2019-02-19T18:17:03.634Z,1.00
2019-02-19T18:19:53.773Z,4.90
2019-02-19T18:22:43.853Z,1.00
2019-02-19T18:25:34.110Z,6.00
2019-02-19T18:28:24.436Z,1.00
2019-02-19T18:31:14.475Z,1.00
2019-02-19T18:34:05.314Z,1.00
2019-02-19T18:36:55.735Z,1.00
2019-02-19T18:39:47.101Z,1.00
2019-02-19T18:42:36.858Z,1.90
2019-02-19T18:45:27.685Z,99.90
2019-02-19T18:48:17.874Z,99.90
2019-02-19T18:51:08.349Z,99.90
2019-02-19T18:53:58.241Z,99.90
2019-02-19T18:56:49.703Z,99.90
2019-02-19T18:59:39.405Z,99.90
2019-02-19T19:02:29.658Z,99.90
2019-02-19T19:05:19.585Z,99.90
2019-02-19T19:08:09.301Z,99.90
2019-02-19T19:10:59.165Z,99.90
2019-02-19T19:13:49.245Z,99.90
2019-02-19T19:16:39.383Z,99.90
2019-02-19T19:19:29.499Z,99.90
2019-02-19T19:22:19.705Z,1.00
2019-02-19T19:25:10.043Z,39.80
2019-02-19T19:27:59.742Z,9.10
2019-02-19T19:30:49.342Z,1.00
2019-02-19T19:33:39.081Z,1.00
2019-02-19T19:36:29.199Z,1.00
2019-02-19T19:39:19.932Z,1.00
2019-02-19T19:42:10.062Z,1.00
2019-02-19T19:45:00.381Z,1.00
2019-02-19T19:47:51.194Z,1.00
2019-02-19T19:50:40.561Z,1.00
2019-02-19T19:53:30.906Z,1.00
2019-02-19T19:56:21.230Z,1.00
2019-02-19T19:59:11.144Z,1.00
2019-02-19T20:02:01.379Z,1.00
2019-02-19T20:04:51.685Z,1.00
2019-02-19T20:07:41.761Z,1.00
2019-02-19T20:10:32.562Z,1.00
2019-02-19T20:13:22.917Z,1.00
2019-02-19T20:16:13.130Z,1.00
2019-02-19T20:19:03.161Z,1.00
2019-02-19T20:21:53.674Z,1.00
2019-02-19T20:24:43.794Z,1.00
2019-02-19T20:27:34.244Z,1.00
2019-02-19T20:30:24.647Z,1.00
2019-02-19T20:33:15.122Z,1.00
2019-02-19T20:36:05.810Z,1.00
2019-02-19T20:38:56.394Z,1.00
2019-02-19T20:41:46.276Z,1.00
2019-02-19T20:44:36.144Z,1.00
2019-02-19T20:47:25.904Z,1.00
2019-02-19T20:50:15.671Z,1.00
2019-02-19T20:53:05.281Z,99.90
2019-02-19T20:55:55.861Z,99.90
2019-02-19T20:58:45.585Z,99.90
2019-02-19T21:01:35.511Z,99.90
2019-02-19T21:04:25.646Z,99.90
2019-02-19T21:07:15.443Z,99.90
2019-02-19T21:10:05.223Z,99.90
2019-02-19T21:12:56.331Z,99.90
2019-02-19T21:15:45.883Z,99.90
2019-02-19T21:18:36.695Z,99.90
2019-02-19T21:21:26.570Z,99.90
2019-02-19T21:24:16.673Z,99.90
2019-02-19T21:27:07.041Z,99.90
2019-02-19T21:29:57.160Z,95.80
2019-02-19T21:32:46.625Z,91.50
2019-02-19T21:35:36.503Z,88.60
2019-02-19T21:38:26.701Z,97.90
2019-02-19T21:41:16.908Z,92.20
2019-02-19T21:44:06.284Z,89.10
2019-02-19T21:46:56.146Z,1.00
2019-02-19T21:49:45.760Z,1.00
2019-02-19T21:52:35.902Z,1.00
2019-02-19T21:55:25.681Z,1.00
2019-02-19T21:58:15.784Z,1.00
2019-02-19T22:01:09.222Z,1.00
2019-02-19T22:03:59.574Z,1.00
2019-02-19T22:06:49.326Z,1.00
2019-02-19T22:09:39.327Z,1.00
2019-02-19T22:12:29.156Z,1.00
2019-02-19T22:15:19.086Z,1.00
2019-02-19T22:18:09.123Z,1.00
2019-02-19T22:21:04.436Z,1.00
2019-02-19T22:23:54.529Z,1.00
2019-02-19T22:26:44.554Z,1.00
2019-02-19T22:29:34.155Z,1.00
2019-02-19T22:32:25.091Z,1.00
2019-02-19T22:35:15.053Z,1.00
2019-02-19T22:38:05.291Z,1.00
2019-02-19T22:40:55.590Z,1.00
2019-02-19T22:43:45.685Z,1.00
2019-02-19T22:46:35.993Z,1.00
2019-02-19T22:53:27.892Z,1.00
2019-02-19T22:56:43.332Z,1.00
2019-02-19T22:59:33.272Z,1.00
2019-02-19T23:02:29.491Z,1.00
2019-02-19T23:05:19.215Z,1.00
2019-02-19T23:08:08.664Z,1.00
2019-02-19T23:10:58.777Z,1.00
2019-02-19T23:13:48.601Z,1.00
2019-02-19T23:16:38.413Z,1.00
2019-02-19T23:19:28.469Z,1.00
2019-02-19T23:22:21.646Z,1.00
2019-02-19T23:25:09.727Z,1.00
2019-02-19T23:27:59.771Z,1.00
2019-02-19T23:30:49.765Z,1.00
2019-02-19T23:33:39.630Z,1.00
2019-02-19T23:36:36.164Z,1.00
2019-02-19T23:39:25.861Z,1.00
2019-02-19T23:42:16.082Z,1.00
2019-02-19T23:45:06.451Z,1.00
2019-02-19T23:47:56.055Z,1.00
2019-02-19T23:50:45.873Z,1.00
2019-02-19T23:53:35.959Z,1.00
2019-02-19T23:56:25.942Z,1.00
2019-02-19T23:59:15.954Z,1.00
